الصفحة الرئيسية
METAR-TAF:

METAR-TAF

مطار :

مطار إليزي

إيليزي, الجزائر

دائرة عرض: 26-30N, خط طول: 008-25E, ارتفاع: 558 متر

مراقبة الطقس الحالي

تاريخ ووقت الإصدار 55 دقيقة قبل الساعة 18:00UTC
ريح 7 عقدة من الشمال الغربي
درجة الحرارة 30°درجة مئوية
الرطوبة 14%
ضغط 1012 hPa
الرؤية 10 كم أو أكثر
الغيوم لا تقل 1500 م ولا وجود لمزنة ركامية السحاب الأسود

METAR: DAAP 011800Z 32007KT CAVOK 30/00 Q1012

زمن: 19:55 (18:55 UTC)

توقعات

تاريخ ووقت الإصدار 1ساعة و 55 دقيقة قبل الساعة 17:00UTC
التوقعات صالحة من01 الساعة 18 UTC إلى 02 الساعة 03 UTC
ريح 8 عقدة من الغرب/الشمال الغربي
الرؤية 10 كم أو أكثر
الغيوم لا تقل 1500 م ولا وجود لمزنة ركامية السحاب الأسود

TAF: DAAP 011700Z 0118/0203 30008KT CAVOK

أرصاد الطقس والتوقعات من أكثر من 4000 مطار (تقارير الطقس للمطار METAR والتنبؤ بالطقس بالمطارTAF).

المحطات المتاحة هي النقط الصفراء والحمراء على الخريطة.

حرك المؤشر فوق النقطة لمعرفة اسم المحطة.

ثم انقر لمعرفة أرصاد وتوقعات الطقس.

لتغيير الخارطة: اضغط على الأزرار الخضراء مع رمز الصليب الأسود للتكبير. على الزر الأخضر مع شرطة للتصغير، أو على الأسهم الخضراء للخرائط المجاورة.


METAR-TAF: